Time;durP1;ratioP1;P1;durP2;ratioP2;P2;SDS_P1;SDS_P2;PMS_P1;PMS_P2;Temp;Humidity;BMP_temperature;BMP_pressure;BME280_temperature;BME280_humidity;BME280_pressure;Samples;Min_cycle;Max_cycle;Signal;HPM_P1;HPM_P2
2023/06/23 00:00:11;;;;;;;2.50;2.30;;;20.20;99.90;;;;;;4984034;28;20201;-79
2023/06/23 00:02:41;;;;;;;3.27;2.90;;;20.30;99.90;;;;;;4983219;28;20201;-78
2023/06/23 00:05:09;;;;;;;2.47;2.30;;;20.30;99.90;;;;;;4980831;28;20225;-78
2023/06/23 00:07:36;;;;;;;2.70;2.33;;;20.30;99.90;;;;;;4980290;28;20638;-79
2023/06/23 00:10:05;;;;;;;2.80;2.60;;;20.20;99.90;;;;;;4980263;28;20205;-79
2023/06/23 00:12:33;;;;;;;3.83;2.80;;;20.20;99.90;;;;;;4980638;28;20201;-77
2023/06/23 00:15:02;;;;;;;3.33;2.50;;;20.20;99.90;;;;;;4981875;28;20225;-77
2023/06/23 00:17:28;;;;;;;5.03;3.83;;;20.10;99.90;;;;;;4980744;28;20265;-77
2023/06/23 00:19:55;;;;;;;8.30;7.67;;;20.00;99.90;;;;;;4979922;28;20257;-77
2023/06/23 00:22:22;;;;;;;3.43;3.13;;;19.90;99.90;;;;;;5012396;28;20204;-78
2023/06/23 00:24:49;;;;;;;3.63;3.33;;;19.80;99.90;;;;;;4979101;28;20316;-77
2023/06/23 00:27:16;;;;;;;6.17;3.10;;;19.80;99.90;;;;;;4979266;28;20661;-78
2023/06/23 00:29:43;;;;;;;3.07;2.77;;;19.70;99.90;;;;;;4978783;28;20201;-77
2023/06/23 00:32:11;;;;;;;3.67;2.97;;;19.60;99.90;;;;;;4979075;28;20214;-77
2023/06/23 00:34:38;;;;;;;4.67;3.40;;;19.50;99.90;;;;;;4978766;28;20637;-78
2023/06/23 00:37:05;;;;;;;4.73;3.60;;;19.50;99.90;;;;;;4979437;28;20260;-77
2023/06/23 00:39:31;;;;;;;3.30;3.00;;;19.50;99.90;;;;;;4979061;28;20217;-77
2023/06/23 00:42:02;;;;;;;4.87;3.07;;;19.40;99.90;;;;;;5011560;28;20767;-78
2023/06/23 00:44:30;;;;;;;4.20;3.20;;;19.40;99.90;;;;;;4978854;28;20288;-77
2023/06/23 00:46:57;;;;;;;3.83;3.37;;;19.30;99.90;;;;;;4980153;28;20684;-77
2023/06/23 00:49:26;;;;;;;5.30;3.80;;;19.20;99.90;;;;;;4976451;28;20583;-77
2023/06/23 00:51:54;;;;;;;4.87;3.57;;;19.30;99.90;;;;;;4977249;28;20225;-77
2023/06/23 00:54:26;;;;;;;5.77;4.03;;;19.20;99.90;;;;;;4976123;28;20209;-77
2023/06/23 00:56:58;;;;;;;5.97;4.27;;;19.20;99.90;;;;;;4969872;28;20274;-77
2023/06/23 00:59:28;;;;;;;5.07;3.10;;;19.10;99.90;;;;;;5010565;28;20201;-78
2023/06/23 01:01:58;;;;;;;5.37;4.83;;;19.00;99.90;;;;;;4978179;28;20229;-78
2023/06/23 01:04:26;;;;;;;5.23;4.53;;;19.10;99.90;;;;;;4978571;28;20213;-78
2023/06/23 01:07:07;;;;;;;5.90;4.40;;;19.00;99.90;;;;;;4981411;28;20205;-78
2023/06/23 01:09:44;;;;;;;3.90;3.30;;;19.10;99.90;;;;;;4979384;28;20626;-77
2023/06/23 01:12:15;;;;;;;3.50;3.20;;;19.10;99.90;;;;;;4978100;28;20220;-77
2023/06/23 01:14:51;;;;;;;3.97;3.57;;;19.10;99.90;;;;;;4975830;28;20204;-77
2023/06/23 01:17:25;;;;;;;4.13;3.70;;;19.10;99.90;;;;;;4977961;28;20209;-78
2023/06/23 01:20:13;;;;;;;5.73;4.17;;;19.10;99.90;;;;;;4984944;28;20220;-78
2023/06/23 01:22:47;;;;;;;5.37;4.20;;;19.10;99.90;;;;;;4994461;28;20244;-77
2023/06/23 01:25:22;;;;;;;5.23;4.70;;;19.10;99.90;;;;;;4977438;28;20217;-78
2023/06/23 01:28:01;;;;;;;5.47;4.33;;;19.10;99.90;;;;;;4970708;28;20214;-78
2023/06/23 01:30:33;;;;;;;6.63;4.00;;;19.10;99.90;;;;;;4975548;28;20611;-77
2023/06/23 01:33:07;;;;;;;5.97;4.57;;;19.00;99.90;;;;;;5001662;28;20197;-78
2023/06/23 01:35:41;;;;;;;7.07;6.00;;;19.00;99.90;;;;;;4975243;28;20259;-78
2023/06/23 01:38:15;;;;;;;7.90;7.33;;;18.90;99.90;;;;;;4976243;28;20204;-79
2023/06/23 01:40:43;;;;;;;4.50;4.10;;;19.00;99.90;;;;;;4976905;28;20232;-79
2023/06/23 01:43:12;;;;;;;5.23;4.73;;;18.90;99.90;;;;;;4978018;28;20232;-79
2023/06/23 01:45:41;;;;;;;7.60;6.30;;;18.90;99.90;;;;;;4977853;28;20231;-78
2023/06/23 01:48:12;;;;;;;5.77;4.90;;;18.80;99.90;;;;;;4978875;28;20189;-78
2023/06/23 01:50:42;;;;;;;5.13;4.50;;;18.80;99.90;;;;;;5007326;28;20275;-78
2023/06/23 01:53:11;;;;;;;4.67;4.00;;;18.70;99.90;;;;;;5007963;28;20316;-78
2023/06/23 01:55:40;;;;;;;9.47;7.00;;;18.80;99.90;;;;;;4974100;28;20212;-78
2023/06/23 01:58:08;;;;;;;4.83;4.43;;;18.70;99.90;;;;;;4974818;28;20201;-77
2023/06/23 02:00:36;;;;;;;10.87;10.17;;;18.60;99.90;;;;;;4973598;28;20219;-78
2023/06/23 02:03:05;;;;;;;4.67;3.87;;;18.50;99.90;;;;;;4975974;28;20199;-77
2023/06/23 02:05:34;;;;;;;6.37;5.77;;;18.40;99.90;;;;;;4974317;28;20236;-78
2023/06/23 02:08:02;;;;;;;8.07;5.73;;;18.40;99.90;;;;;;4975955;28;20209;-78
2023/06/23 02:10:29;;;;;;;6.97;5.50;;;18.20;99.90;;;;;;4973520;28;20226;-78
2023/06/23 02:12:58;;;;;;;6.30;5.70;;;18.20;99.90;;;;;;4975936;28;20237;-78
2023/06/23 02:15:27;;;;;;;6.60;5.70;;;18.10;99.90;;;;;;4974141;28;20200;-78
2023/06/23 02:17:57;;;;;;;6.83;6.23;;;18.10;99.90;;;;;;4966611;28;20205;-78
2023/06/23 02:20:28;;;;;;;8.90;8.20;;;18.00;99.90;;;;;;4981406;28;20220;-78
2023/06/23 02:22:57;;;;;;;7.47;6.80;;;18.00;99.90;;;;;;4974391;28;20234;-79
2023/06/23 02:25:25;;;;;;;8.00;7.40;;;18.00;99.90;;;;;;5006132;28;20561;-77
2023/06/23 02:27:52;;;;;;;8.03;7.33;;;18.00;99.90;;;;;;4981726;28;20634;-77
2023/06/23 02:30:19;;;;;;;8.80;8.10;;;18.00;99.90;;;;;;5005904;28;20231;-78
2023/06/23 02:32:47;;;;;;;5.97;5.37;;;18.00;99.90;;;;;;4972745;28;20813;-78
2023/06/23 02:35:14;;;;;;;8.40;7.77;;;17.90;99.90;;;;;;4973442;28;20288;-78
2023/06/23 02:37:46;;;;;;;6.23;5.73;;;17.90;99.90;;;;;;4973539;28;20222;-77
2023/06/23 02:40:17;;;;;;;5.93;5.43;;;18.00;99.90;;;;;;4973356;28;20226;-77
2023/06/23 02:42:50;;;;;;;9.93;9.23;;;18.00;99.90;;;;;;4973363;28;20217;-78
2023/06/23 02:45:20;;;;;;;6.93;6.33;;;18.00;99.90;;;;;;4968153;28;20649;-78
2023/06/23 02:47:49;;;;;;;6.40;5.80;;;18.00;99.90;;;;;;4973781;28;20892;-78
2023/06/23 02:50:19;;;;;;;4.80;4.40;;;18.00;99.90;;;;;;4972470;28;20233;-78
2023/06/23 02:52:51;;;;;;;6.13;5.63;;;17.90;99.90;;;;;;4973539;28;20721;-80
2023/06/23 02:55:21;;;;;;;4.50;4.10;;;17.90;99.90;;;;;;4975629;28;20650;-80
2023/06/23 02:57:51;;;;;;;5.27;4.77;;;17.90;99.90;;;;;;4971168;28;20744;-80
2023/06/23 03:00:22;;;;;;;4.70;4.30;;;17.90;99.90;;;;;;4971426;28;20238;-79
2023/06/23 03:02:54;;;;;;;4.50;4.10;;;17.90;99.90;;;;;;4975642;28;20211;-80
2023/06/23 03:05:22;;;;;;;5.03;4.63;;;17.80;99.90;;;;;;5003638;28;20226;-80
2023/06/23 03:07:51;;;;;;;5.20;4.70;;;17.90;99.90;;;;;;4971941;28;20898;-78
2023/06/23 03:10:18;;;;;;;4.10;3.80;;;17.80;99.90;;;;;;4999851;28;20650;-79
2023/06/23 03:12:47;;;;;;;5.00;4.50;;;17.80;99.90;;;;;;4975882;28;20286;-79
2023/06/23 03:15:16;;;;;;;7.63;7.03;;;17.80;99.90;;;;;;5005152;28;20722;-80
2023/06/23 03:17:43;;;;;;;9.10;8.50;;;17.80;99.90;;;;;;4974785;28;20592;-82
2023/06/23 03:20:16;;;;;;;4.37;3.97;;;17.80;99.90;;;;;;4976042;28;20226;-82
2023/06/23 03:22:47;;;;;;;4.00;3.70;;;17.80;99.90;;;;;;4976694;28;20207;-82
2023/06/23 03:25:22;;;;;;;4.67;4.27;;;17.80;99.90;;;;;;4976013;28;20371;-82
2023/06/23 03:27:50;;;;;;;5.10;4.60;;;17.80;99.90;;;;;;4974493;28;20217;-81
2023/06/23 03:30:24;;;;;;;4.77;4.37;;;17.80;99.90;;;;;;4974473;28;20226;-80
2023/06/23 03:32:58;;;;;;;4.17;3.87;;;17.80;99.90;;;;;;4972927;28;20546;-80
2023/06/23 03:35:29;;;;;;;4.20;3.90;;;17.90;99.90;;;;;;4978519;28;20252;-80
2023/06/23 03:38:00;;;;;;;4.70;4.30;;;17.80;99.90;;;;;;4976364;28;20246;-81
2023/06/23 03:40:34;;;;;;;4.47;4.07;;;17.80;99.90;;;;;;4977118;28;20230;-81
2023/06/23 03:43:07;;;;;;;5.07;4.37;;;17.80;99.90;;;;;;4970469;28;20194;-81
2023/06/23 03:45:35;;;;;;;4.50;4.10;;;17.80;99.90;;;;;;4977731;28;20214;-81
2023/06/23 03:48:04;;;;;;;5.40;4.90;;;17.80;99.90;;;;;;4979809;28;20210;-78
2023/06/23 03:50:34;;;;;;;5.23;4.70;;;17.80;99.90;;;;;;4978450;28;20258;-79
2023/06/23 03:53:03;;;;;;;4.70;4.30;;;17.80;99.90;;;;;;4980213;28;20227;-78
2023/06/23 03:55:33;;;;;;;5.17;4.67;;;17.90;99.90;;;;;;4980485;28;20202;-79
2023/06/23 03:58:03;;;;;;;4.87;4.47;;;17.90;99.90;;;;;;4973069;28;20189;-78
2023/06/23 04:00:33;;;;;;;6.67;5.20;;;17.90;99.90;;;;;;5012265;28;20231;-78
2023/06/23 04:03:01;;;;;;;5.40;4.90;;;17.90;99.90;;;;;;4978506;28;20244;-78
2023/06/23 04:05:31;;;;;;;4.90;4.40;;;17.90;99.90;;;;;;5011126;28;20232;-78
2023/06/23 04:08:01;;;;;;;6.90;5.87;;;17.90;99.90;;;;;;4973707;28;20215;-79
2023/06/23 04:10:29;;;;;;;6.10;5.50;;;17.90;99.90;;;;;;4979922;28;20214;-79
2023/06/23 04:12:59;;;;;;;5.40;4.90;;;17.90;99.90;;;;;;4978328;28;20199;-79
2023/06/23 04:15:27;;;;;;;5.93;5.33;;;17.90;99.90;;;;;;4979947;28;20187;-77
2023/06/23 04:17:56;;;;;;;6.33;5.40;;;17.80;99.90;;;;;;5010919;28;20195;-79
2023/06/23 04:20:25;;;;;;;5.50;5.00;;;17.80;99.90;;;;;;4979500;28;20261;-79
2023/06/23 04:22:53;;;;;;;5.23;4.73;;;17.70;99.90;;;;;;4979740;28;20254;-77
2023/06/23 04:25:21;;;;;;;5.17;4.73;;;17.70;99.90;;;;;;4983345;28;20643;-79
2023/06/23 04:27:51;;;;;;;6.27;5.67;;;17.70;99.90;;;;;;4982088;28;20206;-78
2023/06/23 04:30:22;;;;;;;5.67;5.17;;;17.70;99.90;;;;;;4983957;28;20276;-77
2023/06/23 04:32:49;;;;;;;6.07;5.47;;;17.70;99.90;;;;;;4982014;28;20208;-78
2023/06/23 04:35:15;;;;;;;6.47;5.83;;;17.70;99.90;;;;;;4983550;28;20279;-79
2023/06/23 04:37:47;;;;;;;6.20;5.60;;;17.70;99.90;;;;;;4983420;28;20239;-77
2023/06/23 04:40:21;;;;;;;6.27;5.67;;;17.70;99.90;;;;;;5014743;28;20222;-79
2023/06/23 04:42:53;;;;;;;6.40;5.80;;;17.80;99.90;;;;;;5014754;28;20227;-79
2023/06/23 04:45:25;;;;;;;6.80;5.47;;;17.80;99.90;;;;;;4983262;28;20223;-78
2023/06/23 04:47:55;;;;;;;6.07;5.47;;;17.80;99.90;;;;;;4982635;28;20209;-79
2023/06/23 04:50:24;;;;;;;7.10;6.40;;;17.90;99.90;;;;;;4983448;28;20231;-78
2023/06/23 04:52:56;;;;;;;6.83;6.20;;;17.90;99.90;;;;;;4982154;28;20268;-77
2023/06/23 04:55:29;;;;;;;7.77;6.60;;;18.00;99.90;;;;;;4983567;28;20191;-78
2023/06/23 04:57:59;;;;;;;6.50;5.87;;;18.10;99.90;;;;;;4981669;28;20205;-77
2023/06/23 05:00:28;;;;;;;7.10;6.40;;;18.10;99.90;;;;;;4982130;28;20806;-78
2023/06/23 05:02:57;;;;;;;6.93;6.23;;;18.20;99.90;;;;;;5012553;28;20244;-78
2023/06/23 05:05:27;;;;;;;8.23;7.53;;;18.30;99.90;;;;;;4980490;28;20279;-78
2023/06/23 05:07:56;;;;;;;8.30;7.00;;;18.30;99.90;;;;;;4981963;28;20265;-79
2023/06/23 05:10:25;;;;;;;11.97;10.97;;;18.40;99.90;;;;;;5013204;28;20220;-78
2023/06/23 05:12:54;;;;;;;11.93;10.93;;;18.40;99.90;;;;;;4980551;28;20204;-77
2023/06/23 05:15:22;;;;;;;10.47;8.50;;;18.30;99.90;;;;;;4980853;28;20241;-77
2023/06/23 05:17:54;;;;;;;11.10;10.10;;;18.40;99.90;;;;;;4981901;28;20274;-79
2023/06/23 05:20:23;;;;;;;12.00;10.87;;;18.40;99.90;;;;;;4982665;28;20283;-79
2023/06/23 05:22:51;;;;;;;12.23;11.13;;;18.60;99.90;;;;;;4982438;28;20205;-80
2023/06/23 05:25:20;;;;;;;6.97;5.70;;;18.60;99.90;;;;;;4972834;28;20220;-76
2023/06/23 05:27:49;;;;;;;7.07;6.37;;;18.70;99.90;;;;;;4976961;28;20223;-77
2023/06/23 05:30:19;;;;;;;10.37;9.37;;;18.80;99.90;;;;;;4977743;28;20225;-78
2023/06/23 05:32:48;;;;;;;7.93;6.93;;;18.80;99.90;;;;;;4977681;28;20598;-78
2023/06/23 05:35:18;;;;;;;12.70;7.50;;;18.90;99.90;;;;;;4977793;28;20656;-76
2023/06/23 05:37:46;;;;;;;11.23;10.13;;;18.90;99.90;;;;;;4978168;28;20684;-77
2023/06/23 05:40:15;;;;;;;10.00;9.10;;;19.00;99.90;;;;;;4976763;28;20227;-77
2023/06/23 05:42:42;;;;;;;11.87;10.87;;;19.00;99.90;;;;;;5008470;28;20631;-77
2023/06/23 05:45:10;;;;;;;10.00;9.00;;;19.00;99.90;;;;;;4981780;28;20231;-78
2023/06/23 05:47:43;;;;;;;8.70;7.80;;;19.00;99.90;;;;;;4980925;28;20237;-79
2023/06/23 05:50:20;;;;;;;13.33;12.13;;;19.00;99.90;;;;;;4977486;28;20205;-80
2023/06/23 05:52:57;;;;;;;13.80;12.30;;;19.10;99.90;;;;;;4978510;28;20201;-78
2023/06/23 05:55:26;;;;;;;13.03;11.73;;;19.20;99.90;;;;;;4976787;28;20209;-80
2023/06/23 05:57:59;;;;;;;13.43;12.03;;;19.20;99.90;;;;;;5007491;28;20205;-80
2023/06/23 06:00:31;;;;;;;13.03;10.23;;;19.30;99.90;;;;;;4975507;28;20296;-80
2023/06/23 06:03:01;;;;;;;13.53;12.13;;;19.30;99.90;;;;;;4974889;28;20209;-77
2023/06/23 06:05:31;;;;;;;15.33;13.93;;;19.20;99.90;;;;;;4978773;28;20231;-81
2023/06/23 06:07:59;;;;;;;15.60;14.07;;;19.20;99.90;;;;;;4975461;28;20204;-80
2023/06/23 06:10:27;;;;;;;15.73;14.40;;;19.20;99.90;;;;;;4976366;28;20228;-80
2023/06/23 06:12:56;;;;;;;14.30;12.63;;;19.20;99.90;;;;;;4977075;28;20684;-81
2023/06/23 06:15:24;;;;;;;15.23;13.93;;;19.20;99.90;;;;;;5002442;28;20240;-79
2023/06/23 06:17:51;;;;;;;15.40;14.03;;;19.30;99.90;;;;;;5008570;28;20202;-80
2023/06/23 06:20:20;;;;;;;14.40;13.20;;;19.40;99.90;;;;;;4976725;28;20295;-80
2023/06/23 06:22:51;;;;;;;13.90;12.70;;;19.50;99.90;;;;;;4975808;28;20206;-78
2023/06/23 06:25:17;;;;;;;13.80;12.50;;;19.50;99.90;;;;;;4976689;28;20277;-80
2023/06/23 06:27:49;;;;;;;13.03;11.83;;;19.70;99.90;;;;;;4977434;28;20205;-79
2023/06/23 06:30:22;;;;;;;14.67;13.07;;;19.80;99.90;;;;;;4978066;28;20222;-78
2023/06/23 06:32:51;;;;;;;14.13;12.50;;;19.90;99.90;;;;;;5006005;28;20209;-80
2023/06/23 06:35:20;;;;;;;15.30;13.80;;;20.00;99.90;;;;;;4975236;28;20585;-81
2023/06/23 06:37:51;;;;;;;11.60;10.37;;;20.10;99.90;;;;;;4976854;28;20296;-79
2023/06/23 06:40:24;;;;;;;12.13;11.03;;;20.20;99.90;;;;;;4986615;28;20272;-78
2023/06/23 06:42:51;;;;;;;12.03;10.70;;;20.40;99.90;;;;;;4979683;28;20205;-79
2023/06/23 06:45:18;;;;;;;11.10;10.00;;;20.70;99.90;;;;;;4975937;28;20225;-80
2023/06/23 06:47:46;;;;;;;12.13;9.60;;;21.00;99.90;;;;;;4975964;28;20206;-80
2023/06/23 06:50:15;;;;;;;14.17;12.83;;;21.10;99.90;;;;;;4976712;28;20225;-83
2023/06/23 06:52:45;;;;;;;13.67;12.30;;;21.30;99.90;;;;;;4980265;28;20210;-81
2023/06/23 06:55:18;;;;;;;15.97;14.57;;;21.50;99.90;;;;;;4975635;28;20205;-80
2023/06/23 06:57:46;;;;;;;14.27;12.97;;;21.60;99.90;;;;;;5008551;28;20308;-80
2023/06/23 07:00:14;;;;;;;15.07;13.73;;;21.70;99.90;;;;;;4976752;28;20214;-81
2023/06/23 07:02:42;;;;;;;15.97;14.67;;;21.80;99.90;;;;;;4977524;28;20198;-80
2023/06/23 07:05:09;;;;;;;13.90;12.57;;;21.80;99.90;;;;;;5000659;28;20213;-82
2023/06/23 07:07:36;;;;;;;13.13;11.73;;;21.80;99.90;;;;;;4976047;28;20237;-80
2023/06/23 07:10:04;;;;;;;13.93;12.43;;;21.70;99.90;;;;;;4977234;28;20600;-82
2023/06/23 07:12:33;;;;;;;12.37;10.97;;;21.70;99.90;;;;;;5008924;28;20201;-81
2023/06/23 07:15:00;;;;;;;14.27;12.87;;;21.70;99.90;;;;;;4977260;28;20288;-82
2023/06/23 07:17:27;;;;;;;12.53;11.30;;;21.60;99.90;;;;;;4975973;28;20198;-81
2023/06/23 07:19:54;;;;;;;15.43;13.97;;;21.80;99.90;;;;;;4975908;28;20206;-82
2023/06/23 07:22:21;;;;;;;12.83;11.53;;;21.90;99.90;;;;;;4976373;28;20202;-81
2023/06/23 07:24:48;;;;;;;11.67;10.47;;;22.30;99.90;;;;;;4977521;28;20649;-81
2023/06/23 07:27:16;;;;;;;16.17;14.73;;;23.20;99.90;;;;;;5008445;28;20221;-82
2023/06/23 07:29:44;;;;;;;15.70;14.20;;;23.80;99.90;;;;;;4977724;28;20202;-80
2023/06/23 07:32:11;;;;;;;15.67;14.20;;;23.80;99.90;;;;;;4973595;28;20589;-80
2023/06/23 07:34:38;;;;;;;14.87;13.27;;;23.80;99.90;;;;;;4976724;28;20665;-81
2023/06/23 07:37:05;;;;;;;12.23;11.03;;;23.80;99.90;;;;;;4976023;28;20205;-84
2023/06/23 07:39:32;;;;;;;14.00;11.70;;;23.80;99.90;;;;;;4976424;28;20214;-83
2023/06/23 07:41:59;;;;;;;12.60;11.07;;;23.80;99.90;;;;;;4976756;28;20218;-80
2023/06/23 07:44:26;;;;;;;12.07;10.50;;;24.00;99.90;;;;;;4975942;28;20208;-81
2023/06/23 07:46:54;;;;;;;13.10;11.80;;;23.90;99.90;;;;;;5008528;28;20252;-81
2023/06/23 07:49:20;;;;;;;16.57;15.07;;;23.90;99.90;;;;;;4976055;28;20626;-81
2023/06/23 07:51:48;;;;;;;17.63;16.03;;;23.80;99.90;;;;;;4976907;28;20295;-80
2023/06/23 07:54:15;;;;;;;15.97;14.40;;;23.70;99.90;;;;;;4976990;28;20225;-81
2023/06/23 07:56:41;;;;;;;12.90;11.43;;;23.60;99.90;;;;;;4976783;28;20629;-82
2023/06/23 07:59:08;;;;;;;17.10;15.50;;;23.60;99.90;;;;;;4979726;28;20727;-81
2023/06/23 08:01:35;;;;;;;16.03;14.50;;;23.50;99.90;;;;;;4980094;28;20265;-80
2023/06/23 08:04:03;;;;;;;16.10;13.67;;;23.50;99.90;;;;;;4977832;28;20703;-81
2023/06/23 08:06:30;;;;;;;12.80;10.77;;;23.60;99.90;;;;;;4979021;28;20222;-82
2023/06/23 08:08:57;;;;;;;12.60;11.40;;;23.90;99.90;;;;;;4980087;28;20264;-79
2023/06/23 08:11:23;;;;;;;15.00;13.50;;;24.10;99.90;;;;;;4979703;28;20213;-81
2023/06/23 08:13:51;;;;;;;12.27;10.97;;;24.40;99.90;;;;;;4980022;28;20236;-82
2023/06/23 08:16:18;;;;;;;13.43;12.10;;;24.70;99.90;;;;;;4978555;28;20229;-80
2023/06/23 08:18:45;;;;;;;13.07;11.87;;;25.10;99.90;;;;;;4979001;28;20225;-80
2023/06/23 08:21:13;;;;;;;14.63;13.27;;;25.50;99.90;;;;;;4976841;28;20596;-78
2023/06/23 08:23:40;;;;;;;14.53;13.03;;;26.10;99.90;;;;;;4977120;28;20234;-78
2023/06/23 08:26:07;;;;;;;15.40;13.93;;;26.50;99.90;;;;;;4979502;28;20194;-82
2023/06/23 08:28:34;;;;;;;13.97;12.80;;;26.70;99.90;;;;;;5011390;28;20202;-82
2023/06/23 08:31:00;;;;;;;14.30;12.80;;;26.50;99.90;;;;;;4980658;28;20261;-82
2023/06/23 08:33:27;;;;;;;13.90;12.70;;;25.70;99.90;;;;;;4980392;28;20202;-82
2023/06/23 08:35:54;;;;;;;12.90;11.80;;;25.00;99.90;;;;;;4980046;28;20206;-80
2023/06/23 08:38:23;;;;;;;13.37;12.07;;;24.60;99.90;;;;;;5012711;28;20206;-80
2023/06/23 08:40:50;;;;;;;11.50;10.50;;;24.50;99.90;;;;;;5011669;28;20283;-81
2023/06/23 08:43:23;;;;;;;12.57;10.63;;;24.80;99.90;;;;;;4981120;28;20229;-82
2023/06/23 08:45:55;;;;;;;12.13;10.93;;;25.10;99.90;;;;;;4978441;28;20217;-84
2023/06/23 08:48:25;;;;;;;11.73;10.67;;;25.50;99.90;;;;;;4979268;28;20596;-81
2023/06/23 08:50:54;;;;;;;10.00;9.20;;;25.50;99.90;;;;;;4987123;28;20236;-81
2023/06/23 08:53:23;;;;;;;10.40;9.40;;;25.60;99.90;;;;;;4979166;28;20590;-82
2023/06/23 08:55:50;;;;;;;10.20;9.20;;;25.60;99.90;;;;;;4978965;28;20206;-81
2023/06/23 08:58:17;;;;;;;7.10;6.40;;;25.60;99.90;;;;;;4978058;28;20322;-86
2023/06/23 09:00:44;;;;;;;6.80;5.87;;;25.70;99.90;;;;;;4977382;28;20224;-82
2023/06/23 09:03:11;;;;;;;7.23;6.40;;;26.00;99.90;;;;;;4976270;28;20244;-82
2023/06/23 09:05:39;;;;;;;6.23;5.47;;;26.50;99.90;;;;;;4975701;28;20198;-81
2023/06/23 09:08:06;;;;;;;8.20;7.50;;;27.00;99.90;;;;;;5008601;28;20221;-81
2023/06/23 09:10:34;;;;;;;8.57;7.73;;;27.30;99.90;;;;;;5007487;28;20670;-82
2023/06/23 09:13:30;;;;;;;8.87;8.17;;;27.60;99.90;;;;;;4976314;28;20206;-83
2023/06/23 09:15:57;;;;;;;8.13;7.43;;;28.10;99.90;;;;;;4954861;28;20245;-84
2023/06/23 09:18:24;;;;;;;8.43;7.73;;;28.30;99.90;;;;;;4975775;28;20198;-81
2023/06/23 09:20:53;;;;;;;8.50;7.70;;;28.00;99.90;;;;;;4976420;28;20217;-81
2023/06/23 09:23:22;;;;;;;9.00;8.20;;;27.90;99.90;;;;;;4977077;28;20212;-81
2023/06/23 09:25:51;;;;;;;9.27;8.37;;;27.80;99.90;;;;;;4976199;28;20201;-82
2023/06/23 09:28:23;;;;;;;9.63;8.73;;;27.30;99.90;;;;;;4967380;28;20288;-80
2023/06/23 09:30:50;;;;;;;8.73;7.93;;;27.50;99.90;;;;;;4972767;28;20232;-82
2023/06/23 09:33:18;;;;;;;9.50;8.70;;;27.70;99.90;;;;;;4973409;28;20194;-80
2023/06/23 09:35:48;;;;;;;8.07;7.40;;;27.40;99.90;;;;;;4976499;28;20198;-83
2023/06/23 09:38:18;;;;;;;9.90;9.10;;;26.80;99.90;;;;;;4976351;28;20198;-82
2023/06/23 09:40:45;;;;;;;9.73;8.93;;;26.60;99.90;;;;;;4975242;28;20289;-84
2023/06/23 09:43:14;;;;;;;9.77;8.97;;;26.60;99.90;;;;;;4974779;28;20276;-82
2023/06/23 09:45:41;;;;;;;9.37;8.50;;;26.50;99.90;;;;;;4976143;28;20305;-84
2023/06/23 09:48:19;;;;;;;7.93;7.23;;;26.90;99.90;;;;;;4974744;28;20700;-81
2023/06/23 09:50:46;;;;;;;7.43;6.87;;;26.90;99.90;;;;;;4974957;28;20222;-84
2023/06/23 09:53:20;;;;;;;8.30;7.57;;;27.10;99.90;;;;;;4976978;28;20264;-81
2023/06/23 09:55:47;;;;;;;9.40;7.70;;;27.00;99.90;;;;;;4976157;28;20205;-84
2023/06/23 09:58:17;;;;;;;9.13;8.37;;;27.30;99.90;;;;;;5007956;28;20202;-82
2023/06/23 10:00:44;;;;;;;7.20;6.07;;;27.30;99.90;;;;;;4975903;28;20218;-77
2023/06/23 10:03:11;;;;;;;7.20;4.60;;;27.50;99.90;;;;;;4976471;28;20222;-78
2023/06/23 10:05:39;;;;;;;7.90;7.20;;;27.80;99.90;;;;;;4976339;28;20226;-76
2023/06/23 10:08:08;;;;;;;7.00;6.40;;;27.80;99.90;;;;;;4976601;28;20210;-79
2023/06/23 10:10:41;;;;;;;8.60;7.90;;;28.10;99.90;;;;;;4977582;28;20226;-80
2023/06/23 10:13:08;;;;;;;8.17;7.47;;;28.50;99.90;;;;;;4977436;28;20281;-79
2023/06/23 10:15:37;;;;;;;8.73;7.93;;;28.60;99.90;;;;;;4976875;28;20201;-80
2023/06/23 10:18:04;;;;;;;9.20;8.50;;;28.70;99.90;;;;;;4976002;28;20193;-78
2023/06/23 10:20:31;;;;;;;8.87;8.17;;;28.60;99.90;;;;;;5007876;28;20739;-79
2023/06/23 10:22:59;;;;;;;9.97;9.17;;;28.70;99.90;;;;;;4976989;28;20264;-77
2023/06/23 10:25:27;;;;;;;8.73;8.03;;;28.40;99.90;;;;;;4977567;28;20208;-80
2023/06/23 10:27:57;;;;;;;7.70;6.10;;;27.90;99.90;;;;;;4976515;28;20716;-78
2023/06/23 10:30:27;;;;;;;6.67;6.17;;;27.30;99.90;;;;;;4977105;28;20213;-81
2023/06/23 10:32:57;;;;;;;9.20;8.50;;;26.50;99.90;;;;;;4977994;28;20701;-80
2023/06/23 10:35:25;;;;;;;6.07;5.53;;;25.90;99.90;;;;;;4974716;28;20720;-80
2023/06/23 10:38:06;;;;;;;8.80;8.10;;;25.70;99.90;;;;;;5008422;28;20249;-79
2023/06/23 10:40:39;;;;;;;8.90;8.30;;;26.00;99.90;;;;;;4974503;28;20214;-79
2023/06/23 10:43:07;;;;;;;11.57;6.53;;;26.50;99.90;;;;;;4976400;28;20209;-82
2023/06/23 10:45:36;;;;;;;8.30;7.60;;;26.70;99.90;;;;;;4978159;28;20212;-82
2023/06/23 10:48:05;;;;;;;8.73;8.03;;;26.50;99.90;;;;;;4978480;28;20222;-81
2023/06/23 10:50:32;;;;;;;10.10;9.10;;;26.90;99.90;;;;;;4977920;28;20241;-80
2023/06/23 10:53:17;;;;;;;8.37;7.77;;;27.30;99.90;;;;;;4974220;28;20208;-80
2023/06/23 10:55:45;;;;;;;9.73;8.93;;;27.50;99.90;;;;;;4978503;28;20226;-81
2023/06/23 10:58:16;;;;;;;9.00;8.30;;;27.30;99.90;;;;;;4981469;28;20198;-81
2023/06/23 11:00:46;;;;;;;9.37;8.67;;;27.30;99.90;;;;;;4977207;28;20236;-80
2023/06/23 11:03:30;;;;;;;8.60;7.90;;;27.30;99.90;;;;;;5013559;28;20267;-81
2023/06/23 11:05:58;;;;;;;8.90;8.00;;;27.30;99.90;;;;;;4976687;28;20284;-76
2023/06/23 11:08:31;;;;;;;8.57;7.77;;;27.60;99.90;;;;;;4973462;28;20697;-75
2023/06/23 11:11:04;;;;;;;8.63;7.93;;;27.80;99.90;;;;;;4969626;28;20221;-78
2023/06/23 11:13:41;;;;;;;8.57;7.80;;;27.90;99.90;;;;;;4974174;28;20499;-78
2023/06/23 11:16:15;;;;;;;9.03;8.10;;;28.00;99.90;;;;;;4971543;28;20225;-77
2023/06/23 11:18:54;;;;;;;10.47;7.00;;;27.80;99.90;;;;;;4973705;28;20257;-76
2023/06/23 11:21:31;;;;;;;4.20;3.80;;;27.70;99.90;;;;;;4973138;28;20274;-77
2023/06/23 11:24:14;;;;;;;5.10;4.57;;;27.30;99.90;;;;;;4972918;28;20216;-74
2023/06/23 11:26:45;;;;;;;5.83;4.47;;;26.90;99.90;;;;;;4973245;28;20575;-79
2023/06/23 11:29:15;;;;;;;7.17;6.13;;;26.70;99.90;;;;;;4977848;28;20194;-80
2023/06/23 11:32:18;;;;;;;7.83;7.20;;;26.70;99.90;;;;;;4981480;28;20708;-78
2023/06/23 11:34:57;;;;;;;7.80;7.20;;;26.90;99.90;;;;;;4977975;28;20205;-77
2023/06/23 11:37:26;;;;;;;7.57;6.97;;;27.00;99.90;;;;;;4975030;28;20735;-79
2023/06/23 11:39:55;;;;;;;8.20;7.50;;;27.40;99.90;;;;;;4958542;28;20209;-78
2023/06/23 11:42:22;;;;;;;7.83;7.13;;;27.20;99.90;;;;;;4974982;28;20225;-78
2023/06/23 11:44:49;;;;;;;7.80;7.10;;;27.10;99.90;;;;;;5007208;28;20219;-77
2023/06/23 11:47:16;;;;;;;7.90;7.20;;;26.90;99.90;;;;;;4972951;28;20253;-78
2023/06/23 11:49:43;;;;;;;7.90;7.30;;;27.10;99.90;;;;;;4979114;28;20512;-77
2023/06/23 11:52:13;;;;;;;8.17;7.40;;;27.40;99.90;;;;;;4973685;28;20229;-77
2023/06/23 11:54:41;;;;;;;6.97;6.47;;;27.70;99.90;;;;;;5006415;28;20289;-78
2023/06/23 11:57:10;;;;;;;8.37;7.70;;;27.90;99.90;;;;;;4973363;28;20205;-77
2023/06/23 11:59:37;;;;;;;8.40;7.80;;;27.80;99.90;;;;;;4975470;28;20202;-81
2023/06/23 12:02:05;;;;;;;8.77;8.07;;;27.90;99.90;;;;;;4975130;28;20229;-80
2023/06/23 12:04:32;;;;;;;8.80;8.10;;;27.80;99.90;;;;;;4975523;28;20415;-81
2023/06/23 12:07:00;;;;;;;8.37;7.77;;;27.60;99.90;;;;;;4975833;28;20202;-82
2023/06/23 12:09:28;;;;;;;8.03;7.43;;;27.30;99.90;;;;;;4970300;28;20209;-81
2023/06/23 12:11:56;;;;;;;8.10;7.50;;;27.00;99.90;;;;;;4976803;28;20230;-80
2023/06/23 12:14:29;;;;;;;8.27;7.67;;;26.50;99.90;;;;;;4976515;28;20217;-75
2023/06/23 12:17:07;;;;;;;6.73;6.13;;;26.10;99.90;;;;;;4973960;28;20217;-82
2023/06/23 12:19:34;;;;;;;9.13;8.23;;;25.80;99.90;;;;;;4970764;28;20237;-83
2023/06/23 12:22:01;;;;;;;5.17;4.60;;;25.70;99.90;;;;;;4975663;28;20272;-80
2023/06/23 12:24:31;;;;;;;5.00;4.00;;;25.90;99.90;;;;;;4976184;28;20229;-82
2023/06/23 12:26:59;;;;;;;4.93;4.30;;;26.00;99.90;;;;;;5001717;28;20681;-82
2023/06/23 12:29:26;;;;;;;6.53;6.03;;;26.10;99.90;;;;;;4969695;28;20226;-81
2023/06/23 12:31:54;;;;;;;7.20;6.50;;;26.30;99.90;;;;;;4973358;28;20281;-82
2023/06/23 12:34:21;;;;;;;6.47;5.50;;;26.50;99.90;;;;;;4979522;28;20324;-84
2023/06/23 12:36:48;;;;;;;6.20;5.60;;;26.60;99.90;;;;;;4978491;28;20210;-83
2023/06/23 12:39:16;;;;;;;7.77;5.50;;;26.60;99.90;;;;;;4978277;28;20194;-82
2023/06/23 12:41:48;;;;;;;6.57;5.83;;;26.40;99.90;;;;;;4976992;28;20230;-82
2023/06/23 12:44:15;;;;;;;8.20;7.33;;;26.40;99.90;;;;;;4977123;28;20693;-83
2023/06/23 12:46:42;;;;;;;8.20;7.50;;;26.40;99.90;;;;;;4980669;28;20237;-82
2023/06/23 12:49:11;;;;;;;8.53;7.70;;;26.30;99.90;;;;;;4979937;28;20273;-82
2023/06/23 12:51:38;;;;;;;8.73;7.90;;;26.40;99.90;;;;;;4979654;28;20257;-82